sensor_id;sensor_type;location;lat;lon;timestamp;P1;durP1;ratioP1;P2;durP2;ratioP2
65684;SDS011;52405;50.844;-1.062;2023-03-14T00:02:18;26.23;;;6.80;;
65684;SDS011;52405;50.844;-1.062;2023-03-14T00:04:43;22.00;;;4.93;;
65684;SDS011;52405;50.844;-1.062;2023-03-14T00:07:12;32.72;;;7.80;;
65684;SDS011;52405;50.844;-1.062;2023-03-14T00:09:38;25.20;;;4.47;;
65684;SDS011;52405;50.844;-1.062;2023-03-14T00:12:04;31.77;;;4.70;;
65684;SDS011;52405;50.844;-1.062;2023-03-14T00:14:31;26.20;;;5.10;;
65684;SDS011;52405;50.844;-1.062;2023-03-14T00:16:59;29.23;;;5.38;;
65684;SDS011;52405;50.844;-1.062;2023-03-14T00:26:18;14.57;;;3.00;;
65684;SDS011;52405;50.844;-1.062;2023-03-14T00:28:45;16.23;;;3.08;;
65684;SDS011;52405;50.844;-1.062;2023-03-14T00:31:13;14.88;;;3.58;;
65684;SDS011;52405;50.844;-1.062;2023-03-14T00:33:39;12.07;;;3.80;;
65684;SDS011;52405;50.844;-1.062;2023-03-14T00:36:07;25.92;;;4.90;;
65684;SDS011;52405;50.844;-1.062;2023-03-14T00:38:34;13.25;;;3.60;;
65684;SDS011;52405;50.844;-1.062;2023-03-14T00:41:07;17.60;;;3.83;;
65684;SDS011;52405;50.844;-1.062;2023-03-14T00:43:41;26.95;;;3.97;;
65684;SDS011;52405;50.844;-1.062;2023-03-14T00:46:06;23.88;;;6.35;;
65684;SDS011;52405;50.844;-1.062;2023-03-14T00:48:32;24.27;;;4.35;;
65684;SDS011;52405;50.844;-1.062;2023-03-14T00:50:59;25.80;;;4.57;;
65684;SDS011;52405;50.844;-1.062;2023-03-14T00:53:24;23.17;;;4.75;;
65684;SDS011;52405;50.844;-1.062;2023-03-14T00:55:49;17.20;;;4.60;;
65684;SDS011;52405;50.844;-1.062;2023-03-14T00:58:16;31.33;;;4.88;;
65684;SDS011;52405;50.844;-1.062;2023-03-14T01:00:43;21.98;;;5.07;;
65684;SDS011;52405;50.844;-1.062;2023-03-14T01:03:10;25.25;;;5.45;;
65684;SDS011;52405;50.844;-1.062;2023-03-14T01:05:37;26.13;;;5.03;;
65684;SDS011;52405;50.844;-1.062;2023-03-14T01:08:05;31.90;;;4.28;;
65684;SDS011;52405;50.844;-1.062;2023-03-14T01:10:32;16.60;;;3.40;;
65684;SDS011;52405;50.844;-1.062;2023-03-14T01:12:59;12.90;;;2.30;;
65684;SDS011;52405;50.844;-1.062;2023-03-14T01:15:28;5.60;;;1.00;;
65684;SDS011;52405;50.844;-1.062;2023-03-14T01:17:53;1.95;;;0.55;;
65684;SDS011;52405;50.844;-1.062;2023-03-14T01:20:18;5.53;;;0.70;;
65684;SDS011;52405;50.844;-1.062;2023-03-14T01:22:46;1.00;;;0.20;;
65684;SDS011;52405;50.844;-1.062;2023-03-14T01:25:13;0.10;;;0.10;;
65684;SDS011;52405;50.844;-1.062;2023-03-14T01:27:40;0.65;;;0.10;;
65684;SDS011;52405;50.844;-1.062;2023-03-14T01:30:08;0.20;;;0.10;;
65684;SDS011;52405;50.844;-1.062;2023-03-14T01:32:34;0.30;;;0.10;;
65684;SDS011;52405;50.844;-1.062;2023-03-14T01:35:02;0.35;;;0.20;;
65684;SDS011;52405;50.844;-1.062;2023-03-14T01:37:28;0.20;;;0.20;;
65684;SDS011;52405;50.844;-1.062;2023-03-14T01:39:54;0.35;;;0.13;;
65684;SDS011;52405;50.844;-1.062;2023-03-14T01:42:21;0.10;;;0.10;;
65684;SDS011;52405;50.844;-1.062;2023-03-14T01:44:53;0.22;;;0.08;;
65684;SDS011;52405;50.844;-1.062;2023-03-14T01:47:20;0.40;;;0.25;;
65684;SDS011;52405;50.844;-1.062;2023-03-14T01:49:52;0.20;;;0.10;;
65684;SDS011;52405;50.844;-1.062;2023-03-14T01:52:23;0.10;;;0.10;;
65684;SDS011;52405;50.844;-1.062;2023-03-14T01:54:54;0.45;;;0.10;;
65684;SDS011;52405;50.844;-1.062;2023-03-14T01:57:26;0.60;;;0.20;;
65684;SDS011;52405;50.844;-1.062;2023-03-14T01:59:58;0.32;;;0.10;;
65684;SDS011;52405;50.844;-1.062;2023-03-14T02:02:30;0.90;;;0.10;;
65684;SDS011;52405;50.844;-1.062;2023-03-14T02:04:59;1.20;;;0.20;;
65684;SDS011;52405;50.844;-1.062;2023-03-14T02:07:45;3.22;;;0.38;;
65684;SDS011;52405;50.844;-1.062;2023-03-14T02:10:15;1.08;;;0.30;;
65684;SDS011;52405;50.844;-1.062;2023-03-14T02:12:43;1.52;;;0.20;;
65684;SDS011;52405;50.844;-1.062;2023-03-14T02:15:11;0.57;;;0.50;;
65684;SDS011;52405;50.844;-1.062;2023-03-14T02:17:36;1.17;;;0.50;;
65684;SDS011;52405;50.844;-1.062;2023-03-14T02:22:53;1.30;;;0.40;;
65684;SDS011;52405;50.844;-1.062;2023-03-14T02:27:53;2.00;;;0.45;;
65684;SDS011;52405;50.844;-1.062;2023-03-14T02:30:23;1.98;;;0.47;;
65684;SDS011;52405;50.844;-1.062;2023-03-14T02:32:54;1.17;;;0.50;;
65684;SDS011;52405;50.844;-1.062;2023-03-14T02:35:52;2.42;;;0.63;;
65684;SDS011;52405;50.844;-1.062;2023-03-14T02:40:54;3.35;;;0.63;;
65684;SDS011;52405;50.844;-1.062;2023-03-14T02:43:19;6.07;;;1.50;;
65684;SDS011;52405;50.844;-1.062;2023-03-14T02:45:46;7.93;;;1.27;;
65684;SDS011;52405;50.844;-1.062;2023-03-14T02:48:16;4.03;;;0.95;;
65684;SDS011;52405;50.844;-1.062;2023-03-14T02:50:46;3.63;;;0.75;;
65684;SDS011;52405;50.844;-1.062;2023-03-14T02:53:15;4.50;;;0.80;;
65684;SDS011;52405;50.844;-1.062;2023-03-14T02:55:50;5.07;;;0.55;;
65684;SDS011;52405;50.844;-1.062;2023-03-14T02:58:16;2.90;;;0.52;;
65684;SDS011;52405;50.844;-1.062;2023-03-14T03:00:42;5.25;;;1.20;;
65684;SDS011;52405;50.844;-1.062;2023-03-14T03:03:07;7.47;;;0.70;;
65684;SDS011;52405;50.844;-1.062;2023-03-14T03:05:33;4.47;;;1.15;;
65684;SDS011;52405;50.844;-1.062;2023-03-14T03:07:59;6.22;;;1.00;;
65684;SDS011;52405;50.844;-1.062;2023-03-14T03:10:24;2.28;;;0.82;;
65684;SDS011;52405;50.844;-1.062;2023-03-14T03:12:52;4.43;;;1.02;;
65684;SDS011;52405;50.844;-1.062;2023-03-14T03:15:18;3.30;;;1.35;;
65684;SDS011;52405;50.844;-1.062;2023-03-14T03:17:46;5.60;;;1.02;;
65684;SDS011;52405;50.844;-1.062;2023-03-14T03:20:14;7.00;;;1.48;;
65684;SDS011;52405;50.844;-1.062;2023-03-14T03:22:40;6.97;;;1.65;;
65684;SDS011;52405;50.844;-1.062;2023-03-14T03:25:08;2.53;;;1.00;;
65684;SDS011;52405;50.844;-1.062;2023-03-14T03:27:36;3.53;;;0.82;;
65684;SDS011;52405;50.844;-1.062;2023-03-14T03:30:05;4.22;;;0.93;;
65684;SDS011;52405;50.844;-1.062;2023-03-14T03:32:33;4.32;;;1.00;;
65684;SDS011;52405;50.844;-1.062;2023-03-14T03:34:58;3.55;;;1.58;;
65684;SDS011;52405;50.844;-1.062;2023-03-14T03:37:24;4.60;;;1.02;;
65684;SDS011;52405;50.844;-1.062;2023-03-14T03:39:50;5.05;;;1.67;;
65684;SDS011;52405;50.844;-1.062;2023-03-14T03:42:16;5.38;;;1.30;;
65684;SDS011;52405;50.844;-1.062;2023-03-14T03:44:42;9.77;;;0.95;;
65684;SDS011;52405;50.844;-1.062;2023-03-14T03:47:10;7.20;;;1.75;;
65684;SDS011;52405;50.844;-1.062;2023-03-14T03:49:36;2.20;;;1.23;;
65684;SDS011;52405;50.844;-1.062;2023-03-14T03:52:01;5.00;;;1.20;;
65684;SDS011;52405;50.844;-1.062;2023-03-14T03:54:27;7.35;;;1.73;;
65684;SDS011;52405;50.844;-1.062;2023-03-14T03:56:53;8.73;;;1.55;;
65684;SDS011;52405;50.844;-1.062;2023-03-14T03:59:22;11.23;;;2.85;;
65684;SDS011;52405;50.844;-1.062;2023-03-14T04:01:49;5.43;;;2.08;;
65684;SDS011;52405;50.844;-1.062;2023-03-14T04:04:15;7.00;;;1.80;;
65684;SDS011;52405;50.844;-1.062;2023-03-14T04:06:40;7.55;;;1.92;;
65684;SDS011;52405;50.844;-1.062;2023-03-14T04:09:07;5.50;;;1.05;;
65684;SDS011;52405;50.844;-1.062;2023-03-14T04:11:35;7.47;;;1.05;;
65684;SDS011;52405;50.844;-1.062;2023-03-14T04:14:03;5.00;;;1.25;;
65684;SDS011;52405;50.844;-1.062;2023-03-14T04:16:30;2.60;;;0.82;;
65684;SDS011;52405;50.844;-1.062;2023-03-14T04:18:58;5.13;;;0.98;;
65684;SDS011;52405;50.844;-1.062;2023-03-14T04:21:24;9.13;;;1.63;;
65684;SDS011;52405;50.844;-1.062;2023-03-14T04:23:49;13.73;;;1.85;;
65684;SDS011;52405;50.844;-1.062;2023-03-14T04:26:15;7.60;;;1.50;;
65684;SDS011;52405;50.844;-1.062;2023-03-14T04:28:43;8.02;;;1.45;;
65684;SDS011;52405;50.844;-1.062;2023-03-14T04:31:14;4.57;;;1.58;;
65684;SDS011;52405;50.844;-1.062;2023-03-14T04:33:43;6.63;;;1.13;;
65684;SDS011;52405;50.844;-1.062;2023-03-14T04:36:09;7.90;;;1.27;;
65684;SDS011;52405;50.844;-1.062;2023-03-14T04:38:34;9.38;;;1.42;;
65684;SDS011;52405;50.844;-1.062;2023-03-14T04:41:02;10.57;;;1.05;;
65684;SDS011;52405;50.844;-1.062;2023-03-14T04:43:31;5.03;;;1.63;;
65684;SDS011;52405;50.844;-1.062;2023-03-14T04:45:57;10.13;;;3.35;;
65684;SDS011;52405;50.844;-1.062;2023-03-14T04:48:23;6.85;;;1.50;;
65684;SDS011;52405;50.844;-1.062;2023-03-14T04:50:52;10.98;;;3.03;;
65684;SDS011;52405;50.844;-1.062;2023-03-14T04:53:18;6.25;;;1.40;;
65684;SDS011;52405;50.844;-1.062;2023-03-14T04:55:47;4.43;;;1.30;;
65684;SDS011;52405;50.844;-1.062;2023-03-14T04:58:16;7.95;;;1.10;;
65684;SDS011;52405;50.844;-1.062;2023-03-14T05:00:44;7.03;;;1.73;;
65684;SDS011;52405;50.844;-1.062;2023-03-14T05:03:10;7.63;;;1.67;;
65684;SDS011;52405;50.844;-1.062;2023-03-14T05:05:35;6.30;;;1.42;;
65684;SDS011;52405;50.844;-1.062;2023-03-14T05:08:03;6.53;;;1.55;;
65684;SDS011;52405;50.844;-1.062;2023-03-14T05:10:31;6.32;;;1.40;;
65684;SDS011;52405;50.844;-1.062;2023-03-14T05:12:56;13.60;;;3.08;;
65684;SDS011;52405;50.844;-1.062;2023-03-14T05:15:22;8.65;;;2.25;;
65684;SDS011;52405;50.844;-1.062;2023-03-14T05:17:47;15.27;;;2.00;;
65684;SDS011;52405;50.844;-1.062;2023-03-14T05:20:14;5.00;;;1.10;;
65684;SDS011;52405;50.844;-1.062;2023-03-14T05:22:42;8.48;;;1.42;;
65684;SDS011;52405;50.844;-1.062;2023-03-14T05:25:08;8.45;;;2.65;;
65684;SDS011;52405;50.844;-1.062;2023-03-14T05:27:35;8.50;;;1.67;;
65684;SDS011;52405;50.844;-1.062;2023-03-14T05:30:01;6.03;;;1.65;;
65684;SDS011;52405;50.844;-1.062;2023-03-14T05:32:30;5.68;;;1.25;;
65684;SDS011;52405;50.844;-1.062;2023-03-14T05:34:55;6.80;;;1.70;;
65684;SDS011;52405;50.844;-1.062;2023-03-14T05:37:24;4.32;;;1.65;;
65684;SDS011;52405;50.844;-1.062;2023-03-14T05:39:52;14.05;;;1.45;;
65684;SDS011;52405;50.844;-1.062;2023-03-14T05:42:17;4.07;;;1.45;;
65684;SDS011;52405;50.844;-1.062;2023-03-14T05:44:43;7.00;;;1.98;;
65684;SDS011;52405;50.844;-1.062;2023-03-14T05:47:09;6.53;;;1.75;;
65684;SDS011;52405;50.844;-1.062;2023-03-14T05:49:37;7.30;;;1.52;;
65684;SDS011;52405;50.844;-1.062;2023-03-14T05:52:03;8.80;;;1.45;;
65684;SDS011;52405;50.844;-1.062;2023-03-14T05:54:30;5.22;;;1.33;;
65684;SDS011;52405;50.844;-1.062;2023-03-14T05:56:56;12.75;;;1.90;;
65684;SDS011;52405;50.844;-1.062;2023-03-14T05:59:21;8.13;;;1.60;;
65684;SDS011;52405;50.844;-1.062;2023-03-14T06:01:47;13.30;;;3.13;;
65684;SDS011;52405;50.844;-1.062;2023-03-14T06:04:14;12.82;;;1.73;;
65684;SDS011;52405;50.844;-1.062;2023-03-14T06:06:40;10.73;;;1.67;;
65684;SDS011;52405;50.844;-1.062;2023-03-14T06:09:07;5.97;;;1.38;;
65684;SDS011;52405;50.844;-1.062;2023-03-14T06:11:37;6.97;;;1.40;;
65684;SDS011;52405;50.844;-1.062;2023-03-14T06:14:03;7.15;;;2.13;;
65684;SDS011;52405;50.844;-1.062;2023-03-14T06:16:28;6.18;;;1.45;;
65684;SDS011;52405;50.844;-1.062;2023-03-14T06:18:54;10.35;;;1.75;;
65684;SDS011;52405;50.844;-1.062;2023-03-14T06:21:19;3.53;;;1.27;;
65684;SDS011;52405;50.844;-1.062;2023-03-14T06:23:45;11.65;;;1.63;;
65684;SDS011;52405;50.844;-1.062;2023-03-14T06:26:13;3.65;;;1.48;;
65684;SDS011;52405;50.844;-1.062;2023-03-14T06:28:41;11.00;;;1.92;;
65684;SDS011;52405;50.844;-1.062;2023-03-14T06:31:06;6.00;;;1.55;;
65684;SDS011;52405;50.844;-1.062;2023-03-14T06:33:31;6.32;;;2.22;;
65684;SDS011;52405;50.844;-1.062;2023-03-14T06:35:57;5.63;;;1.48;;
65684;SDS011;52405;50.844;-1.062;2023-03-14T06:38:22;8.27;;;1.95;;
65684;SDS011;52405;50.844;-1.062;2023-03-14T06:40:48;9.70;;;3.95;;
65684;SDS011;52405;50.844;-1.062;2023-03-14T06:43:13;7.47;;;2.38;;
65684;SDS011;52405;50.844;-1.062;2023-03-14T06:45:41;5.78;;;1.38;;
65684;SDS011;52405;50.844;-1.062;2023-03-14T06:48:06;9.02;;;2.78;;
65684;SDS011;52405;50.844;-1.062;2023-03-14T06:50:32;8.23;;;1.83;;
65684;SDS011;52405;50.844;-1.062;2023-03-14T06:52:59;9.55;;;1.95;;
65684;SDS011;52405;50.844;-1.062;2023-03-14T06:55:25;9.30;;;2.53;;
65684;SDS011;52405;50.844;-1.062;2023-03-14T06:57:53;8.57;;;2.70;;
65684;SDS011;52405;50.844;-1.062;2023-03-14T07:00:23;13.57;;;2.40;;
65684;SDS011;52405;50.844;-1.062;2023-03-14T07:02:49;6.55;;;2.10;;
65684;SDS011;52405;50.844;-1.062;2023-03-14T07:05:17;10.43;;;1.27;;
65684;SDS011;52405;50.844;-1.062;2023-03-14T07:07:43;4.85;;;1.83;;
65684;SDS011;52405;50.844;-1.062;2023-03-14T07:10:08;10.63;;;3.63;;
65684;SDS011;52405;50.844;-1.062;2023-03-14T07:12:36;11.48;;;2.30;;
65684;SDS011;52405;50.844;-1.062;2023-03-14T07:15:02;6.68;;;1.50;;
65684;SDS011;52405;50.844;-1.062;2023-03-14T07:17:27;5.05;;;1.63;;
65684;SDS011;52405;50.844;-1.062;2023-03-14T07:19:55;8.85;;;1.73;;
65684;SDS011;52405;50.844;-1.062;2023-03-14T07:22:20;5.65;;;1.83;;
65684;SDS011;52405;50.844;-1.062;2023-03-14T07:24:48;11.25;;;2.72;;
65684;SDS011;52405;50.844;-1.062;2023-03-14T07:27:16;5.45;;;1.52;;
65684;SDS011;52405;50.844;-1.062;2023-03-14T07:29:41;7.78;;;2.05;;
65684;SDS011;52405;50.844;-1.062;2023-03-14T07:32:07;10.60;;;2.05;;
65684;SDS011;52405;50.844;-1.062;2023-03-14T07:34:34;8.68;;;1.42;;
65684;SDS011;52405;50.844;-1.062;2023-03-14T07:37:02;2.75;;;1.40;;
65684;SDS011;52405;50.844;-1.062;2023-03-14T07:39:29;6.07;;;1.50;;
65684;SDS011;52405;50.844;-1.062;2023-03-14T07:41:55;5.70;;;1.20;;
65684;SDS011;52405;50.844;-1.062;2023-03-14T07:44:23;6.47;;;1.73;;
65684;SDS011;52405;50.844;-1.062;2023-03-14T07:46:48;11.60;;;2.72;;
65684;SDS011;52405;50.844;-1.062;2023-03-14T07:49:13;7.82;;;1.83;;
65684;SDS011;52405;50.844;-1.062;2023-03-14T07:51:41;8.20;;;1.00;;
65684;SDS011;52405;50.844;-1.062;2023-03-14T07:54:08;14.45;;;2.00;;
65684;SDS011;52405;50.844;-1.062;2023-03-14T07:56:34;8.05;;;1.77;;
65684;SDS011;52405;50.844;-1.062;2023-03-14T07:59:00;12.27;;;1.60;;
65684;SDS011;52405;50.844;-1.062;2023-03-14T08:01:25;7.80;;;1.30;;
65684;SDS011;52405;50.844;-1.062;2023-03-14T08:03:51;7.43;;;1.85;;
65684;SDS011;52405;50.844;-1.062;2023-03-14T08:06:16;11.70;;;2.60;;
65684;SDS011;52405;50.844;-1.062;2023-03-14T08:08:44;7.88;;;1.85;;
65684;SDS011;52405;50.844;-1.062;2023-03-14T08:11:12;9.93;;;1.38;;
65684;SDS011;52405;50.844;-1.062;2023-03-14T08:13:40;8.27;;;1.63;;
65684;SDS011;52405;50.844;-1.062;2023-03-14T08:16:14;4.35;;;1.05;;
65684;SDS011;52405;50.844;-1.062;2023-03-14T08:18:42;13.27;;;2.28;;
65684;SDS011;52405;50.844;-1.062;2023-03-14T08:21:08;6.25;;;1.67;;
65684;SDS011;52405;50.844;-1.062;2023-03-14T08:23:34;9.77;;;1.60;;
65684;SDS011;52405;50.844;-1.062;2023-03-14T08:26:02;9.20;;;2.55;;
65684;SDS011;52405;50.844;-1.062;2023-03-14T08:28:27;5.47;;;1.10;;
65684;SDS011;52405;50.844;-1.062;2023-03-14T08:31:00;6.78;;;1.83;;
65684;SDS011;52405;50.844;-1.062;2023-03-14T08:33:27;3.30;;;0.82;;
65684;SDS011;52405;50.844;-1.062;2023-03-14T08:35:54;2.38;;;1.00;;
65684;SDS011;52405;50.844;-1.062;2023-03-14T08:38:21;4.63;;;0.70;;
65684;SDS011;52405;50.844;-1.062;2023-03-14T08:40:46;6.47;;;1.38;;
65684;SDS011;52405;50.844;-1.062;2023-03-14T08:43:12;3.33;;;1.45;;
65684;SDS011;52405;50.844;-1.062;2023-03-14T08:45:38;7.35;;;1.40;;
65684;SDS011;52405;50.844;-1.062;2023-03-14T08:48:06;9.55;;;1.50;;
65684;SDS011;52405;50.844;-1.062;2023-03-14T08:50:34;8.45;;;1.60;;
65684;SDS011;52405;50.844;-1.062;2023-03-14T08:52:59;5.63;;;1.17;;
65684;SDS011;52405;50.844;-1.062;2023-03-14T08:55:28;8.18;;;1.05;;
65684;SDS011;52405;50.844;-1.062;2023-03-14T08:57:53;6.93;;;1.92;;
65684;SDS011;52405;50.844;-1.062;2023-03-14T09:00:19;6.05;;;0.90;;
65684;SDS011;52405;50.844;-1.062;2023-03-14T09:02:45;1.80;;;0.50;;
65684;SDS011;52405;50.844;-1.062;2023-03-14T09:05:11;5.53;;;0.75;;
65684;SDS011;52405;50.844;-1.062;2023-03-14T09:07:39;5.60;;;0.70;;
65684;SDS011;52405;50.844;-1.062;2023-03-14T09:10:06;7.90;;;1.15;;
65684;SDS011;52405;50.844;-1.062;2023-03-14T09:12:35;3.58;;;0.85;;
65684;SDS011;52405;50.844;-1.062;2023-03-14T09:15:05;3.70;;;1.08;;
65684;SDS011;52405;50.844;-1.062;2023-03-14T09:17:31;3.35;;;0.90;;
65684;SDS011;52405;50.844;-1.062;2023-03-14T09:19:57;1.75;;;0.85;;
65684;SDS011;52405;50.844;-1.062;2023-03-14T09:22:22;3.13;;;0.75;;
65684;SDS011;52405;50.844;-1.062;2023-03-14T09:24:48;3.75;;;0.90;;
65684;SDS011;52405;50.844;-1.062;2023-03-14T09:27:15;1.23;;;0.73;;
65684;SDS011;52405;50.844;-1.062;2023-03-14T09:29:41;3.65;;;0.70;;
65684;SDS011;52405;50.844;-1.062;2023-03-14T09:32:06;3.22;;;0.63;;
65684;SDS011;52405;50.844;-1.062;2023-03-14T09:34:34;4.82;;;1.00;;
65684;SDS011;52405;50.844;-1.062;2023-03-14T09:37:00;3.58;;;1.38;;
65684;SDS011;52405;50.844;-1.062;2023-03-14T09:39:30;2.95;;;0.57;;
65684;SDS011;52405;50.844;-1.062;2023-03-14T09:41:56;3.53;;;0.98;;
65684;SDS011;52405;50.844;-1.062;2023-03-14T09:46:57;3.03;;;0.80;;
65684;SDS011;52405;50.844;-1.062;2023-03-14T09:49:29;2.17;;;0.57;;
65684;SDS011;52405;50.844;-1.062;2023-03-14T09:51:57;2.53;;;0.95;;
65684;SDS011;52405;50.844;-1.062;2023-03-14T09:54:36;5.68;;;1.10;;
65684;SDS011;52405;50.844;-1.062;2023-03-14T09:57:04;5.32;;;0.80;;
65684;SDS011;52405;50.844;-1.062;2023-03-14T09:59:31;2.53;;;0.85;;
65684;SDS011;52405;50.844;-1.062;2023-03-14T10:02:01;1.67;;;0.52;;
65684;SDS011;52405;50.844;-1.062;2023-03-14T10:04:36;2.42;;;0.50;;
65684;SDS011;52405;50.844;-1.062;2023-03-14T10:07:07;5.15;;;0.88;;
65684;SDS011;52405;50.844;-1.062;2023-03-14T10:09:50;2.47;;;0.30;;
65684;SDS011;52405;50.844;-1.062;2023-03-14T10:12:19;1.88;;;0.90;;
65684;SDS011;52405;50.844;-1.062;2023-03-14T10:14:49;0.47;;;0.38;;
65684;SDS011;52405;50.844;-1.062;2023-03-14T10:17:17;0.73;;;0.30;;
65684;SDS011;52405;50.844;-1.062;2023-03-14T10:19:50;0.43;;;0.20;;
65684;SDS011;52405;50.844;-1.062;2023-03-14T10:22:32;0.30;;;0.20;;
65684;SDS011;52405;50.844;-1.062;2023-03-14T10:25:04;0.22;;;0.20;;
65684;SDS011;52405;50.844;-1.062;2023-03-14T10:27:50;0.35;;;0.35;;
65684;SDS011;52405;50.844;-1.062;2023-03-14T10:30:27;0.47;;;0.45;;
65684;SDS011;52405;50.844;-1.062;2023-03-14T10:32:56;0.73;;;0.35;;
65684;SDS011;52405;50.844;-1.062;2023-03-14T10:35:21;2.63;;;0.73;;
65684;SDS011;52405;50.844;-1.062;2023-03-14T10:40:28;0.45;;;0.30;;
65684;SDS011;52405;50.844;-1.062;2023-03-14T10:42:59;0.30;;;0.30;;
65684;SDS011;52405;50.844;-1.062;2023-03-14T10:45:38;0.75;;;0.35;;
65684;SDS011;52405;50.844;-1.062;2023-03-14T10:51:01;0.55;;;0.45;;
65684;SDS011;52405;50.844;-1.062;2023-03-14T10:53:49;0.35;;;0.20;;
65684;SDS011;52405;50.844;-1.062;2023-03-14T10:56:21;1.38;;;0.65;;
65684;SDS011;52405;50.844;-1.062;2023-03-14T10:58:58;0.38;;;0.28;;
65684;SDS011;52405;50.844;-1.062;2023-03-14T11:07:40;2.05;;;0.40;;
65684;SDS011;52405;50.844;-1.062;2023-03-14T11:15:41;1.77;;;0.80;;
65684;SDS011;52405;50.844;-1.062;2023-03-14T11:24:12;2.00;;;0.50;;
65684;SDS011;52405;50.844;-1.062;2023-03-14T11:31:51;2.05;;;0.57;;
65684;SDS011;52405;50.844;-1.062;2023-03-14T11:37:12;3.92;;;1.30;;
65684;SDS011;52405;50.844;-1.062;2023-03-14T11:39:45;6.47;;;1.00;;
65684;SDS011;52405;50.844;-1.062;2023-03-14T11:42:16;2.67;;;0.80;;
65684;SDS011;52405;50.844;-1.062;2023-03-14T11:44:43;2.42;;;0.60;;
65684;SDS011;52405;50.844;-1.062;2023-03-14T11:47:20;1.48;;;0.50;;
65684;SDS011;52405;50.844;-1.062;2023-03-14T11:52:17;2.40;;;0.70;;
65684;SDS011;52405;50.844;-1.062;2023-03-14T11:54:52;4.10;;;1.75;;
65684;SDS011;52405;50.844;-1.062;2023-03-14T11:57:21;0.90;;;0.45;;
65684;SDS011;52405;50.844;-1.062;2023-03-14T12:10:46;2.10;;;0.90;;
65684;SDS011;52405;50.844;-1.062;2023-03-14T12:13:15;4.07;;;0.70;;
65684;SDS011;52405;50.844;-1.062;2023-03-14T12:15:46;1.95;;;0.60;;
65684;SDS011;52405;50.844;-1.062;2023-03-14T12:18:32;3.60;;;1.48;;
65684;SDS011;52405;50.844;-1.062;2023-03-14T12:21:01;5.50;;;0.63;;
65684;SDS011;52405;50.844;-1.062;2023-03-14T12:28:42;3.08;;;0.82;;
65684;SDS011;52405;50.844;-1.062;2023-03-14T12:34:31;1.58;;;1.33;;
65684;SDS011;52405;50.844;-1.062;2023-03-14T12:37:23;4.15;;;1.10;;
65684;SDS011;52405;50.844;-1.062;2023-03-14T12:42:58;3.85;;;0.85;;
65684;SDS011;52405;50.844;-1.062;2023-03-14T12:45:43;7.90;;;1.50;;
65684;SDS011;52405;50.844;-1.062;2023-03-14T12:48:32;5.82;;;1.13;;
65684;SDS011;52405;50.844;-1.062;2023-03-14T12:51:02;2.58;;;0.73;;
65684;SDS011;52405;50.844;-1.062;2023-03-14T12:56:40;3.42;;;0.68;;
65684;SDS011;52405;50.844;-1.062;2023-03-14T13:02:10;6.95;;;2.05;;
65684;SDS011;52405;50.844;-1.062;2023-03-14T13:04:51;5.28;;;0.77;;
65684;SDS011;52405;50.844;-1.062;2023-03-14T13:10:02;1.58;;;0.57;;
65684;SDS011;52405;50.844;-1.062;2023-03-14T13:13:09;4.25;;;0.73;;
65684;SDS011;52405;50.844;-1.062;2023-03-14T13:17:59;4.53;;;0.95;;
65684;SDS011;52405;50.844;-1.062;2023-03-14T13:20:53;0.82;;;0.40;;
65684;SDS011;52405;50.844;-1.062;2023-03-14T13:23:25;4.30;;;0.50;;
65684;SDS011;52405;50.844;-1.062;2023-03-14T13:25:52;2.47;;;0.75;;
65684;SDS011;52405;50.844;-1.062;2023-03-14T13:28:18;1.38;;;0.63;;
65684;SDS011;52405;50.844;-1.062;2023-03-14T13:30:48;0.82;;;0.50;;
65684;SDS011;52405;50.844;-1.062;2023-03-14T13:33:20;2.33;;;0.70;;
65684;SDS011;52405;50.844;-1.062;2023-03-14T13:35:57;10.65;;;0.47;;
65684;SDS011;52405;50.844;-1.062;2023-03-14T13:38:25;2.40;;;0.65;;
65684;SDS011;52405;50.844;-1.062;2023-03-14T13:40:53;7.43;;;1.60;;
65684;SDS011;52405;50.844;-1.062;2023-03-14T13:43:31;1.95;;;0.90;;
65684;SDS011;52405;50.844;-1.062;2023-03-14T13:46:06;1.38;;;0.55;;
65684;SDS011;52405;50.844;-1.062;2023-03-14T13:48:41;1.60;;;0.20;;
65684;SDS011;52405;50.844;-1.062;2023-03-14T13:51:16;1.23;;;0.68;;
65684;SDS011;52405;50.844;-1.062;2023-03-14T13:53:52;0.20;;;0.20;;
65684;SDS011;52405;50.844;-1.062;2023-03-14T13:56:23;1.25;;;0.30;;
65684;SDS011;52405;50.844;-1.062;2023-03-14T13:58:50;0.65;;;0.20;;
65684;SDS011;52405;50.844;-1.062;2023-03-14T14:03:58;1.48;;;0.40;;
65684;SDS011;52405;50.844;-1.062;2023-03-14T14:06:44;2.35;;;0.28;;
65684;SDS011;52405;50.844;-1.062;2023-03-14T14:09:16;0.50;;;0.20;;
65684;SDS011;52405;50.844;-1.062;2023-03-14T14:14:27;0.40;;;0.30;;
65684;SDS011;52405;50.844;-1.062;2023-03-14T14:16:54;1.13;;;0.25;;
65684;SDS011;52405;50.844;-1.062;2023-03-14T14:19:21;0.20;;;0.20;;
65684;SDS011;52405;50.844;-1.062;2023-03-14T14:21:50;1.88;;;0.22;;
65684;SDS011;52405;50.844;-1.062;2023-03-14T14:24:19;1.85;;;0.60;;
65684;SDS011;52405;50.844;-1.062;2023-03-14T14:26:59;0.45;;;0.28;;
65684;SDS011;52405;50.844;-1.062;2023-03-14T14:29:39;0.52;;;0.30;;
65684;SDS011;52405;50.844;-1.062;2023-03-14T14:34:38;0.85;;;0.30;;
65684;SDS011;52405;50.844;-1.062;2023-03-14T14:37:26;0.90;;;0.32;;
65684;SDS011;52405;50.844;-1.062;2023-03-14T14:40:00;0.80;;;0.45;;
65684;SDS011;52405;50.844;-1.062;2023-03-14T14:42:34;2.83;;;0.40;;
65684;SDS011;52405;50.844;-1.062;2023-03-14T14:45:04;1.25;;;0.40;;
65684;SDS011;52405;50.844;-1.062;2023-03-14T14:47:47;1.80;;;0.40;;
65684;SDS011;52405;50.844;-1.062;2023-03-14T14:52:46;1.08;;;0.60;;
65684;SDS011;52405;50.844;-1.062;2023-03-14T14:55:21;0.90;;;0.50;;
65684;SDS011;52405;50.844;-1.062;2023-03-14T14:57:54;0.10;;;0.10;;
65684;SDS011;52405;50.844;-1.062;2023-03-14T15:00:22;2.08;;;0.63;;
65684;SDS011;52405;50.844;-1.062;2023-03-14T15:02:53;0.52;;;0.30;;
65684;SDS011;52405;50.844;-1.062;2023-03-14T15:05:26;0.90;;;0.60;;
65684;SDS011;52405;50.844;-1.062;2023-03-14T15:07:56;1.48;;;0.85;;
65684;SDS011;52405;50.844;-1.062;2023-03-14T15:10:23;1.17;;;0.50;;
65684;SDS011;52405;50.844;-1.062;2023-03-14T15:12:49;0.25;;;0.25;;
65684;SDS011;52405;50.844;-1.062;2023-03-14T15:15:17;3.28;;;1.35;;
65684;SDS011;52405;50.844;-1.062;2023-03-14T15:17:44;1.58;;;0.70;;
65684;SDS011;52405;50.844;-1.062;2023-03-14T15:20:10;2.38;;;0.60;;
65684;SDS011;52405;50.844;-1.062;2023-03-14T15:22:38;0.57;;;0.43;;
65684;SDS011;52405;50.844;-1.062;2023-03-14T15:25:04;0.82;;;0.47;;
65684;SDS011;52405;50.844;-1.062;2023-03-14T15:27:35;1.25;;;0.77;;
65684;SDS011;52405;50.844;-1.062;2023-03-14T15:30:09;3.92;;;1.08;;
65684;SDS011;52405;50.844;-1.062;2023-03-14T15:32:38;0.70;;;0.70;;
65684;SDS011;52405;50.844;-1.062;2023-03-14T15:35:04;0.80;;;0.80;;
65684;SDS011;52405;50.844;-1.062;2023-03-14T15:37:30;2.17;;;0.93;;
65684;SDS011;52405;50.844;-1.062;2023-03-14T15:39:55;1.10;;;0.43;;
65684;SDS011;52405;50.844;-1.062;2023-03-14T15:42:23;4.13;;;0.65;;
65684;SDS011;52405;50.844;-1.062;2023-03-14T15:44:50;0.77;;;0.32;;
65684;SDS011;52405;50.844;-1.062;2023-03-14T15:47:16;4.03;;;0.70;;
65684;SDS011;52405;50.844;-1.062;2023-03-14T15:49:41;0.63;;;0.43;;
65684;SDS011;52405;50.844;-1.062;2023-03-14T15:52:07;1.85;;;0.30;;
65684;SDS011;52405;50.844;-1.062;2023-03-14T15:54:33;1.30;;;0.40;;
65684;SDS011;52405;50.844;-1.062;2023-03-14T15:56:59;3.80;;;0.57;;
65684;SDS011;52405;50.844;-1.062;2023-03-14T15:59:25;20.77;;;1.92;;
65684;SDS011;52405;50.844;-1.062;2023-03-14T16:01:51;13.32;;;1.48;;
65684;SDS011;52405;50.844;-1.062;2023-03-14T16:04:16;1.88;;;0.40;;
65684;SDS011;52405;50.844;-1.062;2023-03-14T16:06:42;4.28;;;0.50;;
65684;SDS011;52405;50.844;-1.062;2023-03-14T16:09:09;3.63;;;1.20;;
65684;SDS011;52405;50.844;-1.062;2023-03-14T16:11:36;7.60;;;1.48;;
65684;SDS011;52405;50.844;-1.062;2023-03-14T16:14:01;1.35;;;0.40;;
65684;SDS011;52405;50.844;-1.062;2023-03-14T16:16:27;3.92;;;0.40;;
65684;SDS011;52405;50.844;-1.062;2023-03-14T16:18:52;1.05;;;0.35;;